sensor_id;sensor_type;location;lat;lon;timestamp;temperature;humidity
2465;DHT22;1244;54.326;10.074;2022-07-23T00:00:33;15.70;99.90
2465;DHT22;1244;54.326;10.074;2022-07-23T00:02:58;15.70;99.90
2465;DHT22;1244;54.326;10.074;2022-07-23T00:05:24;15.60;99.90
2465;DHT22;1244;54.326;10.074;2022-07-23T00:07:49;15.60;99.90
2465;DHT22;1244;54.326;10.074;2022-07-23T00:10:15;15.60;99.90
2465;DHT22;1244;54.326;10.074;2022-07-23T00:12:41;15.60;99.90
2465;DHT22;1244;54.326;10.074;2022-07-23T00:15:07;15.60;99.90
2465;DHT22;1244;54.326;10.074;2022-07-23T00:17:33;15.60;99.90
2465;DHT22;1244;54.326;10.074;2022-07-23T00:19:59;15.60;99.90
2465;DHT22;1244;54.326;10.074;2022-07-23T00:22:25;15.60;99.90
2465;DHT22;1244;54.326;10.074;2022-07-23T00:24:51;15.60;99.90
2465;DHT22;1244;54.326;10.074;2022-07-23T00:27:16;15.60;99.90
2465;DHT22;1244;54.326;10.074;2022-07-23T00:29:42;15.60;99.90
2465;DHT22;1244;54.326;10.074;2022-07-23T00:32:07;15.60;99.90
2465;DHT22;1244;54.326;10.074;2022-07-23T00:34:33;15.60;99.90
2465;DHT22;1244;54.326;10.074;2022-07-23T00:36:58;15.60;99.90
2465;DHT22;1244;54.326;10.074;2022-07-23T00:39:24;15.60;99.90
2465;DHT22;1244;54.326;10.074;2022-07-23T00:41:50;15.60;99.90
2465;DHT22;1244;54.326;10.074;2022-07-23T00:44:27;15.50;99.90
2465;DHT22;1244;54.326;10.074;2022-07-23T00:46:55;15.40;99.90
2465;DHT22;1244;54.326;10.074;2022-07-23T00:49:23;15.50;99.90
2465;DHT22;1244;54.326;10.074;2022-07-23T00:51:49;15.40;99.90
2465;DHT22;1244;54.326;10.074;2022-07-23T00:54:16;15.40;99.90
2465;DHT22;1244;54.326;10.074;2022-07-23T00:56:46;15.50;99.90
2465;DHT22;1244;54.326;10.074;2022-07-23T00:59:12;15.50;99.90
2465;DHT22;1244;54.326;10.074;2022-07-23T01:01:39;15.40;99.90
2465;DHT22;1244;54.326;10.074;2022-07-23T01:04:04;15.50;99.90
2465;DHT22;1244;54.326;10.074;2022-07-23T01:06:34;15.50;99.90
2465;DHT22;1244;54.326;10.074;2022-07-23T01:09:00;15.40;99.90
2465;DHT22;1244;54.326;10.074;2022-07-23T01:11:26;15.40;99.90
2465;DHT22;1244;54.326;10.074;2022-07-23T01:13:51;15.30;99.90
2465;DHT22;1244;54.326;10.074;2022-07-23T01:16:17;15.40;99.90
2465;DHT22;1244;54.326;10.074;2022-07-23T01:18:42;15.40;99.90
2465;DHT22;1244;54.326;10.074;2022-07-23T01:21:12;15.40;99.90
2465;DHT22;1244;54.326;10.074;2022-07-23T01:23:40;15.30;99.90
2465;DHT22;1244;54.326;10.074;2022-07-23T01:26:06;15.30;99.90
2465;DHT22;1244;54.326;10.074;2022-07-23T01:28:31;15.30;99.90
2465;DHT22;1244;54.326;10.074;2022-07-23T01:30:58;15.30;99.90
2465;DHT22;1244;54.326;10.074;2022-07-23T01:33:23;15.40;99.90
2465;DHT22;1244;54.326;10.074;2022-07-23T01:35:49;15.40;99.90
2465;DHT22;1244;54.326;10.074;2022-07-23T01:38:14;15.40;99.90
2465;DHT22;1244;54.326;10.074;2022-07-23T01:40:40;15.40;99.90
2465;DHT22;1244;54.326;10.074;2022-07-23T01:43:05;15.40;99.90
2465;DHT22;1244;54.326;10.074;2022-07-23T01:45:31;15.40;99.90
2465;DHT22;1244;54.326;10.074;2022-07-23T01:47:56;15.40;99.90
2465;DHT22;1244;54.326;10.074;2022-07-23T01:50:22;15.30;99.90
2465;DHT22;1244;54.326;10.074;2022-07-23T01:52:47;15.30;99.90
2465;DHT22;1244;54.326;10.074;2022-07-23T01:55:13;15.30;99.90
2465;DHT22;1244;54.326;10.074;2022-07-23T01:57:38;15.20;99.90
2465;DHT22;1244;54.326;10.074;2022-07-23T02:00:04;15.20;99.90
2465;DHT22;1244;54.326;10.074;2022-07-23T02:02:30;15.20;99.90
2465;DHT22;1244;54.326;10.074;2022-07-23T02:04:55;15.20;99.90
2465;DHT22;1244;54.326;10.074;2022-07-23T02:07:21;15.20;99.90
2465;DHT22;1244;54.326;10.074;2022-07-23T02:09:46;15.20;99.90
2465;DHT22;1244;54.326;10.074;2022-07-23T02:12:12;15.20;99.90
2465;DHT22;1244;54.326;10.074;2022-07-23T02:14:37;15.20;99.90
2465;DHT22;1244;54.326;10.074;2022-07-23T02:17:03;15.20;99.90
2465;DHT22;1244;54.326;10.074;2022-07-23T02:19:29;15.20;99.90
2465;DHT22;1244;54.326;10.074;2022-07-23T02:21:54;15.20;99.90
2465;DHT22;1244;54.326;10.074;2022-07-23T02:24:20;15.20;99.90
2465;DHT22;1244;54.326;10.074;2022-07-23T02:26:46;15.10;99.90
2465;DHT22;1244;54.326;10.074;2022-07-23T02:29:11;15.20;99.90
2465;DHT22;1244;54.326;10.074;2022-07-23T02:31:37;15.20;99.90
2465;DHT22;1244;54.326;10.074;2022-07-23T02:34:02;15.10;99.90
2465;DHT22;1244;54.326;10.074;2022-07-23T02:36:29;15.20;99.90
2465;DHT22;1244;54.326;10.074;2022-07-23T02:38:55;15.10;99.90
2465;DHT22;1244;54.326;10.074;2022-07-23T02:41:20;15.10;99.90
2465;DHT22;1244;54.326;10.074;2022-07-23T02:43:46;15.10;99.90
2465;DHT22;1244;54.326;10.074;2022-07-23T02:46:12;15.10;99.90
2465;DHT22;1244;54.326;10.074;2022-07-23T02:48:38;15.00;99.90
2465;DHT22;1244;54.326;10.074;2022-07-23T02:51:03;15.10;99.90
2465;DHT22;1244;54.326;10.074;2022-07-23T02:53:29;15.10;99.90
2465;DHT22;1244;54.326;10.074;2022-07-23T02:55:54;15.10;99.90
2465;DHT22;1244;54.326;10.074;2022-07-23T02:58:20;15.10;99.90
2465;DHT22;1244;54.326;10.074;2022-07-23T03:00:46;15.10;99.90
2465;DHT22;1244;54.326;10.074;2022-07-23T03:03:12;15.10;99.90
2465;DHT22;1244;54.326;10.074;2022-07-23T03:05:38;15.00;99.90
2465;DHT22;1244;54.326;10.074;2022-07-23T03:08:03;15.10;99.90
2465;DHT22;1244;54.326;10.074;2022-07-23T03:10:29;15.10;99.90
2465;DHT22;1244;54.326;10.074;2022-07-23T03:12:54;15.00;99.90
2465;DHT22;1244;54.326;10.074;2022-07-23T03:15:20;14.90;99.90
2465;DHT22;1244;54.326;10.074;2022-07-23T03:17:45;14.90;99.90
2465;DHT22;1244;54.326;10.074;2022-07-23T03:20:11;14.90;99.90
2465;DHT22;1244;54.326;10.074;2022-07-23T03:22:36;15.00;99.90
2465;DHT22;1244;54.326;10.074;2022-07-23T03:25:02;14.90;99.90
2465;DHT22;1244;54.326;10.074;2022-07-23T03:27:29;15.00;99.90
2465;DHT22;1244;54.326;10.074;2022-07-23T03:29:56;15.00;99.90
2465;DHT22;1244;54.326;10.074;2022-07-23T03:32:23;15.00;99.90
2465;DHT22;1244;54.326;10.074;2022-07-23T03:34:49;15.00;99.90
2465;DHT22;1244;54.326;10.074;2022-07-23T03:37:15;15.00;99.90
2465;DHT22;1244;54.326;10.074;2022-07-23T03:39:40;14.90;99.90
2465;DHT22;1244;54.326;10.074;2022-07-23T03:42:07;15.00;99.90
2465;DHT22;1244;54.326;10.074;2022-07-23T03:44:33;15.00;99.90
2465;DHT22;1244;54.326;10.074;2022-07-23T03:46:58;14.90;99.90
2465;DHT22;1244;54.326;10.074;2022-07-23T03:49:24;14.90;99.90
2465;DHT22;1244;54.326;10.074;2022-07-23T03:51:50;14.90;99.90
2465;DHT22;1244;54.326;10.074;2022-07-23T03:54:16;14.80;99.90
2465;DHT22;1244;54.326;10.074;2022-07-23T03:56:41;14.90;99.90
2465;DHT22;1244;54.326;10.074;2022-07-23T03:59:08;14.90;99.90
2465;DHT22;1244;54.326;10.074;2022-07-23T04:01:34;14.90;99.90
2465;DHT22;1244;54.326;10.074;2022-07-23T04:03:59;14.90;99.90
2465;DHT22;1244;54.326;10.074;2022-07-23T04:06:25;14.90;99.90
2465;DHT22;1244;54.326;10.074;2022-07-23T04:08:50;15.00;99.90
2465;DHT22;1244;54.326;10.074;2022-07-23T04:11:16;15.00;99.90
2465;DHT22;1244;54.326;10.074;2022-07-23T04:13:41;15.00;99.90
2465;DHT22;1244;54.326;10.074;2022-07-23T04:16:07;15.00;99.90
2465;DHT22;1244;54.326;10.074;2022-07-23T04:18:33;15.00;99.90
2465;DHT22;1244;54.326;10.074;2022-07-23T04:20:58;15.00;99.90
2465;DHT22;1244;54.326;10.074;2022-07-23T04:23:24;15.10;99.90
2465;DHT22;1244;54.326;10.074;2022-07-23T04:25:49;15.20;99.90
2465;DHT22;1244;54.326;10.074;2022-07-23T04:28:15;15.20;99.90
2465;DHT22;1244;54.326;10.074;2022-07-23T04:30:40;15.20;99.90
2465;DHT22;1244;54.326;10.074;2022-07-23T04:33:06;15.30;99.90
2465;DHT22;1244;54.326;10.074;2022-07-23T04:35:33;15.30;99.90
2465;DHT22;1244;54.326;10.074;2022-07-23T04:37:59;15.30;99.90
2465;DHT22;1244;54.326;10.074;2022-07-23T04:40:25;15.30;99.90
2465;DHT22;1244;54.326;10.074;2022-07-23T04:42:50;15.30;99.90
2465;DHT22;1244;54.326;10.074;2022-07-23T04:45:16;15.30;99.90
2465;DHT22;1244;54.326;10.074;2022-07-23T04:47:42;15.30;99.90
2465;DHT22;1244;54.326;10.074;2022-07-23T04:50:09;15.30;99.90
2465;DHT22;1244;54.326;10.074;2022-07-23T04:52:34;15.30;99.90
2465;DHT22;1244;54.326;10.074;2022-07-23T04:55:00;15.30;99.90
2465;DHT22;1244;54.326;10.074;2022-07-23T04:57:25;15.30;99.90
2465;DHT22;1244;54.326;10.074;2022-07-23T04:59:51;15.30;99.90
2465;DHT22;1244;54.326;10.074;2022-07-23T05:02:16;15.30;99.90
2465;DHT22;1244;54.326;10.074;2022-07-23T05:04:43;15.30;99.90
2465;DHT22;1244;54.326;10.074;2022-07-23T05:07:08;15.30;99.90
2465;DHT22;1244;54.326;10.074;2022-07-23T05:09:34;15.30;99.90
2465;DHT22;1244;54.326;10.074;2022-07-23T05:12:00;15.20;99.90
2465;DHT22;1244;54.326;10.074;2022-07-23T05:14:25;15.30;99.90
2465;DHT22;1244;54.326;10.074;2022-07-23T05:16:51;15.20;99.90
2465;DHT22;1244;54.326;10.074;2022-07-23T05:19:16;15.10;99.90
2465;DHT22;1244;54.326;10.074;2022-07-23T05:21:42;15.20;99.90
2465;DHT22;1244;54.326;10.074;2022-07-23T05:24:07;15.40;99.90
2465;DHT22;1244;54.326;10.074;2022-07-23T05:26:33;15.40;99.90
2465;DHT22;1244;54.326;10.074;2022-07-23T05:28:58;15.50;99.90
2465;DHT22;1244;54.326;10.074;2022-07-23T05:31:24;15.50;99.90
2465;DHT22;1244;54.326;10.074;2022-07-23T05:33:50;15.40;99.90
2465;DHT22;1244;54.326;10.074;2022-07-23T05:36:15;15.40;99.90
2465;DHT22;1244;54.326;10.074;2022-07-23T05:38:41;15.50;99.90
2465;DHT22;1244;54.326;10.074;2022-07-23T05:41:06;15.60;99.90
2465;DHT22;1244;54.326;10.074;2022-07-23T05:43:32;15.70;99.90
2465;DHT22;1244;54.326;10.074;2022-07-23T05:45:57;15.80;99.90
2465;DHT22;1244;54.326;10.074;2022-07-23T05:48:23;15.80;99.90
2465;DHT22;1244;54.326;10.074;2022-07-23T05:50:48;15.80;99.90
2465;DHT22;1244;54.326;10.074;2022-07-23T05:53:14;15.80;99.90
2465;DHT22;1244;54.326;10.074;2022-07-23T05:55:39;15.90;99.90
2465;DHT22;1244;54.326;10.074;2022-07-23T05:58:05;15.90;99.90
2465;DHT22;1244;54.326;10.074;2022-07-23T06:00:31;15.80;99.90
2465;DHT22;1244;54.326;10.074;2022-07-23T06:02:56;15.80;99.90
2465;DHT22;1244;54.326;10.074;2022-07-23T06:05:22;15.80;99.90
2465;DHT22;1244;54.326;10.074;2022-07-23T06:07:48;15.90;99.90
2465;DHT22;1244;54.326;10.074;2022-07-23T06:10:14;16.00;99.90
2465;DHT22;1244;54.326;10.074;2022-07-23T06:12:40;16.00;99.90
2465;DHT22;1244;54.326;10.074;2022-07-23T06:15:06;16.00;99.90
2465;DHT22;1244;54.326;10.074;2022-07-23T06:17:32;15.90;99.90
2465;DHT22;1244;54.326;10.074;2022-07-23T06:19:57;16.00;99.90
2465;DHT22;1244;54.326;10.074;2022-07-23T06:22:23;16.00;99.90
2465;DHT22;1244;54.326;10.074;2022-07-23T06:24:49;16.00;99.90
2465;DHT22;1244;54.326;10.074;2022-07-23T06:27:16;16.00;99.90
2465;DHT22;1244;54.326;10.074;2022-07-23T06:29:41;16.00;99.90
2465;DHT22;1244;54.326;10.074;2022-07-23T06:32:07;15.90;99.90
2465;DHT22;1244;54.326;10.074;2022-07-23T06:34:33;15.90;99.90
2465;DHT22;1244;54.326;10.074;2022-07-23T06:37:00;15.90;99.90
2465;DHT22;1244;54.326;10.074;2022-07-23T06:39:25;15.80;99.90
2465;DHT22;1244;54.326;10.074;2022-07-23T06:41:51;15.80;99.90
2465;DHT22;1244;54.326;10.074;2022-07-23T06:44:17;15.80;99.90
2465;DHT22;1244;54.326;10.074;2022-07-23T06:46:42;15.80;99.90
2465;DHT22;1244;54.326;10.074;2022-07-23T06:49:08;15.80;99.90
2465;DHT22;1244;54.326;10.074;2022-07-23T06:51:33;15.90;99.90
2465;DHT22;1244;54.326;10.074;2022-07-23T06:53:59;15.90;99.90
2465;DHT22;1244;54.326;10.074;2022-07-23T06:56:25;15.90;99.90
2465;DHT22;1244;54.326;10.074;2022-07-23T06:58:50;16.00;99.90
2465;DHT22;1244;54.326;10.074;2022-07-23T07:01:16;15.90;99.90
2465;DHT22;1244;54.326;10.074;2022-07-23T07:03:41;15.80;99.90
2465;DHT22;1244;54.326;10.074;2022-07-23T07:06:07;15.80;99.90
2465;DHT22;1244;54.326;10.074;2022-07-23T07:08:33;15.90;99.90
2465;DHT22;1244;54.326;10.074;2022-07-23T07:10:58;15.80;99.90
2465;DHT22;1244;54.326;10.074;2022-07-23T07:13:24;15.70;99.90
2465;DHT22;1244;54.326;10.074;2022-07-23T07:15:49;15.80;99.90
2465;DHT22;1244;54.326;10.074;2022-07-23T07:18:15;15.70;99.90
2465;DHT22;1244;54.326;10.074;2022-07-23T07:20:40;15.70;99.90
2465;DHT22;1244;54.326;10.074;2022-07-23T07:23:06;15.80;99.90
2465;DHT22;1244;54.326;10.074;2022-07-23T07:25:31;15.70;99.90
2465;DHT22;1244;54.326;10.074;2022-07-23T07:27:57;15.70;99.90
2465;DHT22;1244;54.326;10.074;2022-07-23T07:30:22;15.60;99.90
2465;DHT22;1244;54.326;10.074;2022-07-23T07:32:48;15.60;99.90
2465;DHT22;1244;54.326;10.074;2022-07-23T07:35:13;15.60;99.90
2465;DHT22;1244;54.326;10.074;2022-07-23T07:37:39;15.70;99.90
2465;DHT22;1244;54.326;10.074;2022-07-23T07:40:04;15.60;99.90
2465;DHT22;1244;54.326;10.074;2022-07-23T07:42:30;15.50;99.90
2465;DHT22;1244;54.326;10.074;2022-07-23T07:44:57;15.60;99.90
2465;DHT22;1244;54.326;10.074;2022-07-23T07:47:23;15.60;99.90
2465;DHT22;1244;54.326;10.074;2022-07-23T07:49:48;15.60;99.90
2465;DHT22;1244;54.326;10.074;2022-07-23T07:52:14;15.70;99.90
2465;DHT22;1244;54.326;10.074;2022-07-23T07:54:39;15.70;99.90
2465;DHT22;1244;54.326;10.074;2022-07-23T07:57:05;15.80;99.90
2465;DHT22;1244;54.326;10.074;2022-07-23T07:59:30;15.90;99.90
2465;DHT22;1244;54.326;10.074;2022-07-23T08:01:56;16.10;99.90
2465;DHT22;1244;54.326;10.074;2022-07-23T08:04:21;16.00;99.90
2465;DHT22;1244;54.326;10.074;2022-07-23T08:06:47;16.20;99.90
2465;DHT22;1244;54.326;10.074;2022-07-23T08:09:12;16.40;99.90
2465;DHT22;1244;54.326;10.074;2022-07-23T08:11:38;16.50;99.90
2465;DHT22;1244;54.326;10.074;2022-07-23T08:14:03;16.40;99.90
2465;DHT22;1244;54.326;10.074;2022-07-23T08:16:29;16.30;99.90
2465;DHT22;1244;54.326;10.074;2022-07-23T08:18:54;16.50;99.90
2465;DHT22;1244;54.326;10.074;2022-07-23T08:21:20;16.40;99.90
2465;DHT22;1244;54.326;10.074;2022-07-23T08:23:45;16.50;99.90
2465;DHT22;1244;54.326;10.074;2022-07-23T08:26:11;16.70;99.90
2465;DHT22;1244;54.326;10.074;2022-07-23T08:28:36;16.80;99.90
2465;DHT22;1244;54.326;10.074;2022-07-23T08:31:02;16.70;99.90
2465;DHT22;1244;54.326;10.074;2022-07-23T08:33:28;16.50;99.90
2465;DHT22;1244;54.326;10.074;2022-07-23T08:35:53;16.30;99.90
2465;DHT22;1244;54.326;10.074;2022-07-23T08:38:21;16.50;99.90
2465;DHT22;1244;54.326;10.074;2022-07-23T08:40:49;16.70;99.90
2465;DHT22;1244;54.326;10.074;2022-07-23T08:43:17;16.80;99.90
2465;DHT22;1244;54.326;10.074;2022-07-23T08:45:44;17.60;99.90
2465;DHT22;1244;54.326;10.074;2022-07-23T08:48:19;18.30;99.90
2465;DHT22;1244;54.326;10.074;2022-07-23T08:50:47;18.70;99.90
2465;DHT22;1244;54.326;10.074;2022-07-23T08:53:13;19.00;99.90
2465;DHT22;1244;54.326;10.074;2022-07-23T08:55:39;18.90;99.90
2465;DHT22;1244;54.326;10.074;2022-07-23T08:58:06;18.70;99.90
2465;DHT22;1244;54.326;10.074;2022-07-23T09:00:32;18.40;99.90
2465;DHT22;1244;54.326;10.074;2022-07-23T09:02:58;18.20;99.90
2465;DHT22;1244;54.326;10.074;2022-07-23T09:05:24;18.10;99.90
2465;DHT22;1244;54.326;10.074;2022-07-23T09:10:57;17.90;99.90
2465;DHT22;1244;54.326;10.074;2022-07-23T09:13:46;17.50;99.90
2465;DHT22;1244;54.326;10.074;2022-07-23T09:16:15;17.30;99.90
2465;DHT22;1244;54.326;10.074;2022-07-23T09:21:12;17.10;99.90
2465;DHT22;1244;54.326;10.074;2022-07-23T09:23:46;17.00;99.90
2465;DHT22;1244;54.326;10.074;2022-07-23T09:26:33;17.40;99.90
2465;DHT22;1244;54.326;10.074;2022-07-23T09:29:01;17.60;99.90
2465;DHT22;1244;54.326;10.074;2022-07-23T09:31:33;17.80;99.90
2465;DHT22;1244;54.326;10.074;2022-07-23T09:34:13;17.70;99.90
2465;DHT22;1244;54.326;10.074;2022-07-23T09:36:39;18.10;99.90
2465;DHT22;1244;54.326;10.074;2022-07-23T09:39:05;18.40;99.90
2465;DHT22;1244;54.326;10.074;2022-07-23T09:41:39;18.70;99.90
2465;DHT22;1244;54.326;10.074;2022-07-23T09:44:09;18.90;99.90
2465;DHT22;1244;54.326;10.074;2022-07-23T09:46:35;19.50;99.90
2465;DHT22;1244;54.326;10.074;2022-07-23T09:51:52;20.30;99.90
2465;DHT22;1244;54.326;10.074;2022-07-23T09:54:38;20.30;99.90
2465;DHT22;1244;54.326;10.074;2022-07-23T09:57:05;20.10;99.90
2465;DHT22;1244;54.326;10.074;2022-07-23T09:59:36;19.70;99.90
2465;DHT22;1244;54.326;10.074;2022-07-23T10:02:02;19.70;99.90
2465;DHT22;1244;54.326;10.074;2022-07-23T10:04:30;19.60;99.90
2465;DHT22;1244;54.326;10.074;2022-07-23T10:06:58;19.60;99.90
2465;DHT22;1244;54.326;10.074;2022-07-23T10:09:33;19.50;99.90
2465;DHT22;1244;54.326;10.074;2022-07-23T10:12:02;19.70;99.90
2465;DHT22;1244;54.326;10.074;2022-07-23T10:14:48;19.70;99.90
2465;DHT22;1244;54.326;10.074;2022-07-23T10:17:16;19.70;99.90
2465;DHT22;1244;54.326;10.074;2022-07-23T10:19:42;19.90;99.90
2465;DHT22;1244;54.326;10.074;2022-07-23T10:22:11;20.20;99.90
2465;DHT22;1244;54.326;10.074;2022-07-23T10:27:47;19.70;99.90
2465;DHT22;1244;54.326;10.074;2022-07-23T10:33:27;19.30;99.90
2465;DHT22;1244;54.326;10.074;2022-07-23T10:36:22;19.00;99.90
2465;DHT22;1244;54.326;10.074;2022-07-23T10:39:05;18.50;99.90
2465;DHT22;1244;54.326;10.074;2022-07-23T10:44:14;18.30;99.90
2465;DHT22;1244;54.326;10.074;2022-07-23T10:47:13;18.10;99.90
2465;DHT22;1244;54.326;10.074;2022-07-23T10:50:18;17.80;99.90
2465;DHT22;1244;54.326;10.074;2022-07-23T10:57:59;17.30;99.90
2465;DHT22;1244;54.326;10.074;2022-07-23T11:00:26;17.20;99.90
2465;DHT22;1244;54.326;10.074;2022-07-23T11:03:01;17.20;99.90
2465;DHT22;1244;54.326;10.074;2022-07-23T11:05:47;17.10;99.90
2465;DHT22;1244;54.326;10.074;2022-07-23T11:08:18;17.00;99.90
2465;DHT22;1244;54.326;10.074;2022-07-23T11:16:10;17.30;99.90
2465;DHT22;1244;54.326;10.074;2022-07-23T11:24:16;17.60;99.90
2465;DHT22;1244;54.326;10.074;2022-07-23T11:26:52;17.90;99.90
2465;DHT22;1244;54.326;10.074;2022-07-23T11:32:04;19.10;99.90
2465;DHT22;1244;54.326;10.074;2022-07-23T11:34:32;19.90;99.90
2465;DHT22;1244;54.326;10.074;2022-07-23T11:37:01;20.20;99.90
2465;DHT22;1244;54.326;10.074;2022-07-23T11:39:30;19.80;99.90
2465;DHT22;1244;54.326;10.074;2022-07-23T11:41:57;19.70;99.90
2465;DHT22;1244;54.326;10.074;2022-07-23T11:44:26;19.20;99.90
2465;DHT22;1244;54.326;10.074;2022-07-23T11:47:03;19.20;99.90
2465;DHT22;1244;54.326;10.074;2022-07-23T11:49:29;18.60;99.90
2465;DHT22;1244;54.326;10.074;2022-07-23T11:52:13;18.30;99.90
2465;DHT22;1244;54.326;10.074;2022-07-23T11:57:20;18.50;99.90
2465;DHT22;1244;54.326;10.074;2022-07-23T11:59:52;18.50;99.90
2465;DHT22;1244;54.326;10.074;2022-07-23T12:02:19;18.40;99.90
2465;DHT22;1244;54.326;10.074;2022-07-23T12:04:47;18.40;99.90
2465;DHT22;1244;54.326;10.074;2022-07-23T12:09:48;19.70;99.90
2465;DHT22;1244;54.326;10.074;2022-07-23T12:12:17;20.60;99.90
2465;DHT22;1244;54.326;10.074;2022-07-23T12:14:57;21.10;99.90
2465;DHT22;1244;54.326;10.074;2022-07-23T12:17:32;21.90;99.90
2465;DHT22;1244;54.326;10.074;2022-07-23T12:19:59;23.00;99.90
2465;DHT22;1244;54.326;10.074;2022-07-23T12:22:33;23.30;99.90
2465;DHT22;1244;54.326;10.074;2022-07-23T12:25:01;21.80;99.90
2465;DHT22;1244;54.326;10.074;2022-07-23T12:27:28;20.70;99.90
2465;DHT22;1244;54.326;10.074;2022-07-23T12:29:54;20.30;99.90
2465;DHT22;1244;54.326;10.074;2022-07-23T12:32:28;20.00;99.90
2465;DHT22;1244;54.326;10.074;2022-07-23T12:35:05;19.20;99.90
2465;DHT22;1244;54.326;10.074;2022-07-23T12:37:40;18.70;99.90
2465;DHT22;1244;54.326;10.074;2022-07-23T12:40:57;18.50;99.90
2465;DHT22;1244;54.326;10.074;2022-07-23T12:43:31;18.70;99.90
2465;DHT22;1244;54.326;10.074;2022-07-23T12:48:34;18.20;99.90
2465;DHT22;1244;54.326;10.074;2022-07-23T12:51:14;18.10;99.90
2465;DHT22;1244;54.326;10.074;2022-07-23T12:53:50;17.90;99.90
2465;DHT22;1244;54.326;10.074;2022-07-23T12:56:44;17.90;99.90
2465;DHT22;1244;54.326;10.074;2022-07-23T12:59:09;18.20;99.90
2465;DHT22;1244;54.326;10.074;2022-07-23T13:01:40;18.60;99.90
2465;DHT22;1244;54.326;10.074;2022-07-23T13:04:12;18.90;99.90
2465;DHT22;1244;54.326;10.074;2022-07-23T13:06:45;20.00;99.90
2465;DHT22;1244;54.326;10.074;2022-07-23T13:09:22;21.00;99.90
2465;DHT22;1244;54.326;10.074;2022-07-23T13:11:48;21.50;99.90
2465;DHT22;1244;54.326;10.074;2022-07-23T13:14:16;21.40;99.90
2465;DHT22;1244;54.326;10.074;2022-07-23T13:16:42;21.10;99.90
2465;DHT22;1244;54.326;10.074;2022-07-23T13:19:08;20.50;99.90
2465;DHT22;1244;54.326;10.074;2022-07-23T13:21:35;20.40;99.90
2465;DHT22;1244;54.326;10.074;2022-07-23T13:24:01;20.20;99.90
2465;DHT22;1244;54.326;10.074;2022-07-23T13:26:27;19.30;99.90
2465;DHT22;1244;54.326;10.074;2022-07-23T13:28:53;19.30;99.90
2465;DHT22;1244;54.326;10.074;2022-07-23T13:31:19;19.30;99.90
2465;DHT22;1244;54.326;10.074;2022-07-23T13:33:45;19.20;99.90
2465;DHT22;1244;54.326;10.074;2022-07-23T13:36:11;19.00;99.90
2465;DHT22;1244;54.326;10.074;2022-07-23T13:38:37;18.90;99.90
2465;DHT22;1244;54.326;10.074;2022-07-23T13:41:03;18.90;99.90
2465;DHT22;1244;54.326;10.074;2022-07-23T13:43:28;18.60;99.90
2465;DHT22;1244;54.326;10.074;2022-07-23T13:45:55;18.80;99.90
2465;DHT22;1244;54.326;10.074;2022-07-23T13:48:21;19.00;99.90
2465;DHT22;1244;54.326;10.074;2022-07-23T13:50:47;18.90;99.90
2465;DHT22;1244;54.326;10.074;2022-07-23T13:53:15;19.10;99.90
2465;DHT22;1244;54.326;10.074;2022-07-23T13:55:42;19.40;99.90
2465;DHT22;1244;54.326;10.074;2022-07-23T13:58:09;19.60;99.90
2465;DHT22;1244;54.326;10.074;2022-07-23T14:00:37;20.00;99.90
2465;DHT22;1244;54.326;10.074;2022-07-23T14:03:02;19.90;99.90
2465;DHT22;1244;54.326;10.074;2022-07-23T14:05:28;19.60;99.90
2465;DHT22;1244;54.326;10.074;2022-07-23T14:07:54;19.60;99.90
2465;DHT22;1244;54.326;10.074;2022-07-23T14:10:21;19.50;99.90
2465;DHT22;1244;54.326;10.074;2022-07-23T14:12:48;19.60;99.90
2465;DHT22;1244;54.326;10.074;2022-07-23T14:15:14;19.50;99.90
2465;DHT22;1244;54.326;10.074;2022-07-23T14:17:41;19.40;99.90
2465;DHT22;1244;54.326;10.074;2022-07-23T14:20:09;19.00;99.90
2465;DHT22;1244;54.326;10.074;2022-07-23T14:22:35;18.80;99.90
2465;DHT22;1244;54.326;10.074;2022-07-23T14:25:00;18.50;99.90
2465;DHT22;1244;54.326;10.074;2022-07-23T14:27:27;18.70;99.90
2465;DHT22;1244;54.326;10.074;2022-07-23T14:29:53;18.80;99.90
2465;DHT22;1244;54.326;10.074;2022-07-23T14:32:19;18.90;99.90
2465;DHT22;1244;54.326;10.074;2022-07-23T14:34:45;19.20;99.90
2465;DHT22;1244;54.326;10.074;2022-07-23T14:37:11;19.40;99.90
2465;DHT22;1244;54.326;10.074;2022-07-23T14:39:37;19.20;99.90
2465;DHT22;1244;54.326;10.074;2022-07-23T14:42:05;19.00;99.90
2465;DHT22;1244;54.326;10.074;2022-07-23T14:44:31;18.90;99.90
2465;DHT22;1244;54.326;10.074;2022-07-23T14:46:56;19.00;99.90
2465;DHT22;1244;54.326;10.074;2022-07-23T14:49:22;18.90;99.90
2465;DHT22;1244;54.326;10.074;2022-07-23T14:51:48;18.80;99.90
2465;DHT22;1244;54.326;10.074;2022-07-23T14:54:13;18.70;99.90
2465;DHT22;1244;54.326;10.074;2022-07-23T14:56:40;18.70;99.90
2465;DHT22;1244;54.326;10.074;2022-07-23T14:59:06;19.00;99.90
2465;DHT22;1244;54.326;10.074;2022-07-23T15:01:32;19.30;99.90
2465;DHT22;1244;54.326;10.074;2022-07-23T15:03:58;19.50;99.90
2465;DHT22;1244;54.326;10.074;2022-07-23T15:06:24;19.90;99.90
2465;DHT22;1244;54.326;10.074;2022-07-23T15:08:50;19.90;99.90
2465;DHT22;1244;54.326;10.074;2022-07-23T15:11:16;19.90;99.90
2465;DHT22;1244;54.326;10.074;2022-07-23T15:13:41;19.80;99.90
2465;DHT22;1244;54.326;10.074;2022-07-23T15:16:07;19.70;99.90
2465;DHT22;1244;54.326;10.074;2022-07-23T15:18:33;19.80;99.90
2465;DHT22;1244;54.326;10.074;2022-07-23T15:20:59;19.40;99.90
2465;DHT22;1244;54.326;10.074;2022-07-23T15:23:26;19.30;99.90
2465;DHT22;1244;54.326;10.074;2022-07-23T15:25:57;19.40;99.90
2465;DHT22;1244;54.326;10.074;2022-07-23T15:28:23;19.20;99.90
2465;DHT22;1244;54.326;10.074;2022-07-23T15:30:50;19.10;99.90
2465;DHT22;1244;54.326;10.074;2022-07-23T15:33:16;19.20;99.90
2465;DHT22;1244;54.326;10.074;2022-07-23T15:35:42;19.10;99.90
2465;DHT22;1244;54.326;10.074;2022-07-23T15:38:08;18.90;99.90
2465;DHT22;1244;54.326;10.074;2022-07-23T15:40:33;18.80;99.90
2465;DHT22;1244;54.326;10.074;2022-07-23T15:43:01;19.00;99.90
2465;DHT22;1244;54.326;10.074;2022-07-23T15:45:29;19.30;99.90
2465;DHT22;1244;54.326;10.074;2022-07-23T15:47:55;19.20;99.90
2465;DHT22;1244;54.326;10.074;2022-07-23T15:50:21;19.20;99.90
2465;DHT22;1244;54.326;10.074;2022-07-23T15:52:46;18.90;99.90
2465;DHT22;1244;54.326;10.074;2022-07-23T15:55:12;19.10;99.90
2465;DHT22;1244;54.326;10.074;2022-07-23T15:57:37;19.20;99.90
2465;DHT22;1244;54.326;10.074;2022-07-23T16:00:05;18.90;99.90
2465;DHT22;1244;54.326;10.074;2022-07-23T16:02:31;19.00;99.90
2465;DHT22;1244;54.326;10.074;2022-07-23T16:04:57;19.10;99.90
2465;DHT22;1244;54.326;10.074;2022-07-23T16:07:23;19.20;99.90
2465;DHT22;1244;54.326;10.074;2022-07-23T16:09:48;18.80;99.90
2465;DHT22;1244;54.326;10.074;2022-07-23T16:12:14;18.80;99.90
2465;DHT22;1244;54.326;10.074;2022-07-23T16:14:40;18.70;99.90
2465;DHT22;1244;54.326;10.074;2022-07-23T16:17:05;18.60;99.90
2465;DHT22;1244;54.326;10.074;2022-07-23T16:19:31;18.60;99.90
2465;DHT22;1244;54.326;10.074;2022-07-23T16:21:57;18.70;99.90
2465;DHT22;1244;54.326;10.074;2022-07-23T16:24:22;18.60;99.90
2465;DHT22;1244;54.326;10.074;2022-07-23T16:26:48;18.50;99.90
2465;DHT22;1244;54.326;10.074;2022-07-23T16:29:14;18.50;99.90